Terminal Aerodrome Forecast
Issued by NWS

Home | Current Version | Previous Version | Text Only | Print | Product List | Glossary On
Versions: 1 2 3 4 5 6 7 8 9 10 11 12 13 14 15 16 17 18 19 20 21 22 23 24 25 26 27 28 29
030
FTUS43 KABR 060931 AAL
TAFMBG
TAF AMD
KMBG 060931Z 0610/0706 30024G40KT 3/4SM -SN BLSN OVC015
     FM061200 31022G32KT P6SM -SN OVC015
     FM061900 31022G32KT P6SM OVC050
     FM062300 31020G27KT P6SM BKN040=

USA.gov is the U.S. government's official web portal to all federal, state and local government web resources and services.